sensor_id;sensor_type;location;lat;lon;timestamp;pressure;altitude;pressure_sealevel;temperature;humidity
2178;BME280;1095;50.992;6.798;2022-08-06T00:00:14;101794.25;;;13.90;81.52
2178;BME280;1095;50.992;6.798;2022-08-06T00:02:41;101786.81;;;13.85;82.09
2178;BME280;1095;50.992;6.798;2022-08-06T00:05:09;101791.16;;;13.77;81.92
2178;BME280;1095;50.992;6.798;2022-08-06T00:07:37;101791.97;;;13.77;82.14
2178;BME280;1095;50.992;6.798;2022-08-06T00:10:04;101794.91;;;13.74;82.21
2178;BME280;1095;50.992;6.798;2022-08-06T00:12:32;101793.03;;;13.67;82.42
2178;BME280;1095;50.992;6.798;2022-08-06T00:14:59;101798.50;;;13.55;82.92
2178;BME280;1095;50.992;6.798;2022-08-06T00:17:26;101793.25;;;13.55;82.72
2178;BME280;1095;50.992;6.798;2022-08-06T00:19:53;101799.94;;;13.40;83.46
2178;BME280;1095;50.992;6.798;2022-08-06T00:22:23;101802.28;;;13.43;83.57
2178;BME280;1095;50.992;6.798;2022-08-06T00:24:50;101803.31;;;13.33;84.07
2178;BME280;1095;50.992;6.798;2022-08-06T00:27:16;101799.44;;;13.27;83.93
2178;BME280;1095;50.992;6.798;2022-08-06T00:29:43;101801.25;;;13.26;84.66
2178;BME280;1095;50.992;6.798;2022-08-06T00:32:11;101800.19;;;13.19;84.45
2178;BME280;1095;50.992;6.798;2022-08-06T00:34:38;101806.00;;;13.13;84.49
2178;BME280;1095;50.992;6.798;2022-08-06T00:37:12;101825.50;;;13.11;85.10
2178;BME280;1095;50.992;6.798;2022-08-06T00:43:30;101814.06;;;13.02;86.15
2178;BME280;1095;50.992;6.798;2022-08-06T00:46:00;101815.44;;;12.96;85.85
2178;BME280;1095;50.992;6.798;2022-08-06T00:51:55;101823.34;;;12.87;86.19
2178;BME280;1095;50.992;6.798;2022-08-06T00:54:24;101824.47;;;12.84;86.42
2178;BME280;1095;50.992;6.798;2022-08-06T00:56:50;101813.97;;;12.84;86.34
2178;BME280;1095;50.992;6.798;2022-08-06T00:59:18;101823.75;;;12.92;85.75
2178;BME280;1095;50.992;6.798;2022-08-06T01:01:45;101818.25;;;12.85;85.76
2178;BME280;1095;50.992;6.798;2022-08-06T01:04:12;101822.41;;;12.78;85.90
2178;BME280;1095;50.992;6.798;2022-08-06T01:06:38;101822.84;;;12.74;86.38
2178;BME280;1095;50.992;6.798;2022-08-06T01:09:05;101819.63;;;12.80;86.30
2178;BME280;1095;50.992;6.798;2022-08-06T01:11:32;101816.91;;;12.72;86.29
2178;BME280;1095;50.992;6.798;2022-08-06T01:13:59;101826.59;;;12.71;86.10
2178;BME280;1095;50.992;6.798;2022-08-06T01:16:31;101830.19;;;12.70;86.51
2178;BME280;1095;50.992;6.798;2022-08-06T01:19:10;101832.13;;;12.68;86.44
2178;BME280;1095;50.992;6.798;2022-08-06T01:21:50;101840.69;;;12.70;86.33
2178;BME280;1095;50.992;6.798;2022-08-06T01:24:37;101843.59;;;12.67;86.53
2178;BME280;1095;50.992;6.798;2022-08-06T01:27:31;101836.00;;;12.64;86.68
2178;BME280;1095;50.992;6.798;2022-08-06T01:30:04;101828.94;;;12.65;86.56
2178;BME280;1095;50.992;6.798;2022-08-06T01:32:35;101833.50;;;12.62;86.66
2178;BME280;1095;50.992;6.798;2022-08-06T01:35:06;101828.66;;;12.58;86.89
2178;BME280;1095;50.992;6.798;2022-08-06T01:37:39;101836.53;;;12.58;86.63
2178;BME280;1095;50.992;6.798;2022-08-06T01:40:11;101848.44;;;12.62;86.64
2178;BME280;1095;50.992;6.798;2022-08-06T01:42:41;101845.09;;;12.60;86.69
2178;BME280;1095;50.992;6.798;2022-08-06T01:45:11;101846.50;;;12.64;86.77
2178;BME280;1095;50.992;6.798;2022-08-06T01:47:41;101848.69;;;12.59;86.64
2178;BME280;1095;50.992;6.798;2022-08-06T01:50:11;101856.16;;;12.54;87.07
2178;BME280;1095;50.992;6.798;2022-08-06T01:52:40;101847.59;;;12.52;87.02
2178;BME280;1095;50.992;6.798;2022-08-06T01:55:10;101859.91;;;12.51;87.11
2178;BME280;1095;50.992;6.798;2022-08-06T01:57:43;101852.44;;;12.47;87.15
2178;BME280;1095;50.992;6.798;2022-08-06T02:00:12;101853.41;;;12.46;87.05
2178;BME280;1095;50.992;6.798;2022-08-06T02:02:40;101859.19;;;12.49;87.10
2178;BME280;1095;50.992;6.798;2022-08-06T02:05:09;101871.34;;;12.41;87.58
2178;BME280;1095;50.992;6.798;2022-08-06T02:07:39;101858.09;;;12.33;87.78
2178;BME280;1095;50.992;6.798;2022-08-06T02:10:08;101852.84;;;12.33;88.07
2178;BME280;1095;50.992;6.798;2022-08-06T02:12:36;101859.47;;;12.37;88.17
2178;BME280;1095;50.992;6.798;2022-08-06T02:15:12;101856.28;;;12.33;88.10
2178;BME280;1095;50.992;6.798;2022-08-06T02:17:43;101859.50;;;12.27;88.36
2178;BME280;1095;50.992;6.798;2022-08-06T02:20:14;101856.19;;;12.25;88.29
2178;BME280;1095;50.992;6.798;2022-08-06T02:22:42;101863.22;;;12.24;88.75
2178;BME280;1095;50.992;6.798;2022-08-06T02:25:13;101861.13;;;12.18;88.41
2178;BME280;1095;50.992;6.798;2022-08-06T02:27:43;101863.06;;;12.16;88.95
2178;BME280;1095;50.992;6.798;2022-08-06T02:30:13;101858.38;;;12.10;88.79
2178;BME280;1095;50.992;6.798;2022-08-06T02:32:41;101865.81;;;12.05;89.43
2178;BME280;1095;50.992;6.798;2022-08-06T02:35:09;101861.66;;;12.03;89.20
2178;BME280;1095;50.992;6.798;2022-08-06T02:37:40;101860.97;;;12.01;89.40
2178;BME280;1095;50.992;6.798;2022-08-06T02:40:13;101868.00;;;12.00;89.67
2178;BME280;1095;50.992;6.798;2022-08-06T02:42:44;101871.59;;;11.99;89.79
2178;BME280;1095;50.992;6.798;2022-08-06T02:45:17;101857.91;;;11.95;89.75
2178;BME280;1095;50.992;6.798;2022-08-06T02:47:50;101861.91;;;11.90;90.27
2178;BME280;1095;50.992;6.798;2022-08-06T02:50:22;101864.09;;;11.85;90.71
2178;BME280;1095;50.992;6.798;2022-08-06T02:52:53;101865.63;;;11.78;91.21
2178;BME280;1095;50.992;6.798;2022-08-06T02:55:25;101863.75;;;11.69;91.22
2178;BME280;1095;50.992;6.798;2022-08-06T02:57:54;101857.81;;;11.67;91.26
2178;BME280;1095;50.992;6.798;2022-08-06T03:00:24;101847.19;;;11.68;91.53
2178;BME280;1095;50.992;6.798;2022-08-06T03:02:54;101845.94;;;11.62;91.97
2178;BME280;1095;50.992;6.798;2022-08-06T03:05:22;101857.81;;;11.67;91.86
2178;BME280;1095;50.992;6.798;2022-08-06T03:07:50;101850.91;;;11.66;91.88
2178;BME280;1095;50.992;6.798;2022-08-06T03:10:20;101857.13;;;11.64;91.56
2178;BME280;1095;50.992;6.798;2022-08-06T03:12:48;101850.47;;;11.60;92.03
2178;BME280;1095;50.992;6.798;2022-08-06T03:15:17;101861.09;;;11.59;92.12
2178;BME280;1095;50.992;6.798;2022-08-06T03:17:46;101861.22;;;11.57;92.12
2178;BME280;1095;50.992;6.798;2022-08-06T03:20:16;101861.22;;;11.57;92.56
2178;BME280;1095;50.992;6.798;2022-08-06T03:22:46;101852.94;;;11.52;92.44
2178;BME280;1095;50.992;6.798;2022-08-06T03:25:15;101850.44;;;11.51;92.39
2178;BME280;1095;50.992;6.798;2022-08-06T03:27:44;101856.66;;;11.50;92.80
2178;BME280;1095;50.992;6.798;2022-08-06T03:30:12;101862.03;;;11.48;92.66
2178;BME280;1095;50.992;6.798;2022-08-06T03:32:39;101867.66;;;11.44;92.94
2178;BME280;1095;50.992;6.798;2022-08-06T03:35:08;101863.94;;;11.46;92.80
2178;BME280;1095;50.992;6.798;2022-08-06T03:37:36;101870.00;;;11.47;93.07
2178;BME280;1095;50.992;6.798;2022-08-06T03:40:04;101883.25;;;11.45;93.40
2178;BME280;1095;50.992;6.798;2022-08-06T03:42:31;101888.88;;;11.41;93.62
2178;BME280;1095;50.992;6.798;2022-08-06T03:44:59;101884.03;;;11.36;94.10
2178;BME280;1095;50.992;6.798;2022-08-06T03:47:29;101891.34;;;11.33;94.04
2178;BME280;1095;50.992;6.798;2022-08-06T03:50:02;101886.78;;;11.35;93.84
2178;BME280;1095;50.992;6.798;2022-08-06T03:52:36;101883.78;;;11.39;94.18
2178;BME280;1095;50.992;6.798;2022-08-06T03:55:06;101894.25;;;11.39;94.05
2178;BME280;1095;50.992;6.798;2022-08-06T03:57:38;101889.84;;;11.40;94.31
2178;BME280;1095;50.992;6.798;2022-08-06T04:00:08;101895.09;;;11.40;94.05
2178;BME280;1095;50.992;6.798;2022-08-06T04:02:37;101898.25;;;11.34;94.48
2178;BME280;1095;50.992;6.798;2022-08-06T04:05:06;101897.84;;;11.38;94.56
2178;BME280;1095;50.992;6.798;2022-08-06T04:07:35;101897.69;;;11.30;94.59
2178;BME280;1095;50.992;6.798;2022-08-06T04:10:02;101907.19;;;11.31;94.78
2178;BME280;1095;50.992;6.798;2022-08-06T04:12:30;101908.84;;;11.32;94.83
2178;BME280;1095;50.992;6.798;2022-08-06T04:14:57;101906.94;;;11.34;95.15
2178;BME280;1095;50.992;6.798;2022-08-06T04:17:26;101906.66;;;11.37;94.51
2178;BME280;1095;50.992;6.798;2022-08-06T04:19:54;101911.19;;;11.35;94.54
2178;BME280;1095;50.992;6.798;2022-08-06T04:22:21;101917.13;;;11.37;94.34
2178;BME280;1095;50.992;6.798;2022-08-06T04:24:49;101920.19;;;11.42;94.74
2178;BME280;1095;50.992;6.798;2022-08-06T04:27:16;101925.81;;;11.58;94.04
2178;BME280;1095;50.992;6.798;2022-08-06T04:29:45;101921.19;;;11.72;93.47
2178;BME280;1095;50.992;6.798;2022-08-06T04:32:14;101927.16;;;11.83;93.08
2178;BME280;1095;50.992;6.798;2022-08-06T04:34:42;101927.91;;;11.95;92.57
2178;BME280;1095;50.992;6.798;2022-08-06T04:37:09;101932.50;;;12.03;91.96
2178;BME280;1095;50.992;6.798;2022-08-06T04:39:37;101933.78;;;12.18;91.44
2178;BME280;1095;50.992;6.798;2022-08-06T04:42:06;101933.63;;;12.29;90.66
2178;BME280;1095;50.992;6.798;2022-08-06T04:44:33;101932.13;;;12.36;90.10
2178;BME280;1095;50.992;6.798;2022-08-06T04:47:02;101941.25;;;12.32;89.97
2178;BME280;1095;50.992;6.798;2022-08-06T04:49:32;101938.63;;;12.32;89.79
2178;BME280;1095;50.992;6.798;2022-08-06T04:51:59;101940.16;;;12.35;89.69
2178;BME280;1095;50.992;6.798;2022-08-06T04:54:26;101950.81;;;12.43;89.63
2178;BME280;1095;50.992;6.798;2022-08-06T04:56:53;101954.13;;;12.45;89.62
2178;BME280;1095;50.992;6.798;2022-08-06T04:59:21;101949.31;;;12.69;88.72
2178;BME280;1095;50.992;6.798;2022-08-06T05:01:47;101954.56;;;12.79;88.08
2178;BME280;1095;50.992;6.798;2022-08-06T05:04:14;101951.78;;;13.09;86.88
2178;BME280;1095;50.992;6.798;2022-08-06T05:06:46;101960.22;;;13.03;86.60
2178;BME280;1095;50.992;6.798;2022-08-06T05:09:18;101963.28;;;13.08;86.94
2178;BME280;1095;50.992;6.798;2022-08-06T05:11:48;101963.41;;;13.26;86.26
2178;BME280;1095;50.992;6.798;2022-08-06T05:14:23;101971.94;;;13.47;85.46
2178;BME280;1095;50.992;6.798;2022-08-06T05:16:51;101961.44;;;13.47;85.17
2178;BME280;1095;50.992;6.798;2022-08-06T05:19:25;101959.38;;;13.41;85.46
2178;BME280;1095;50.992;6.798;2022-08-06T05:21:54;101959.91;;;13.82;84.01
2178;BME280;1095;50.992;6.798;2022-08-06T05:24:22;101956.59;;;14.17;82.81
2178;BME280;1095;50.992;6.798;2022-08-06T05:26:49;101979.84;;;14.39;81.73
2178;BME280;1095;50.992;6.798;2022-08-06T05:29:18;101988.19;;;15.41;78.22
2178;BME280;1095;50.992;6.798;2022-08-06T05:31:46;101977.28;;;16.38;74.82
2178;BME280;1095;50.992;6.798;2022-08-06T05:34:13;101980.53;;;17.15;72.07
2178;BME280;1095;50.992;6.798;2022-08-06T05:36:40;101969.56;;;18.06;68.73
2178;BME280;1095;50.992;6.798;2022-08-06T05:39:07;101970.91;;;18.41;67.14
2178;BME280;1095;50.992;6.798;2022-08-06T05:41:34;101981.19;;;18.89;66.47
2178;BME280;1095;50.992;6.798;2022-08-06T05:44:01;101987.59;;;19.47;64.92
2178;BME280;1095;50.992;6.798;2022-08-06T05:46:33;101984.06;;;19.55;63.92
2178;BME280;1095;50.992;6.798;2022-08-06T05:49:04;101988.44;;;20.07;62.57
2178;BME280;1095;50.992;6.798;2022-08-06T05:51:37;101982.13;;;20.59;61.66
2178;BME280;1095;50.992;6.798;2022-08-06T05:54:14;101986.97;;;21.19;60.06
2178;BME280;1095;50.992;6.798;2022-08-06T05:56:43;101983.09;;;20.72;60.84
2178;BME280;1095;50.992;6.798;2022-08-06T05:59:17;101994.06;;;21.12;59.80
2178;BME280;1095;50.992;6.798;2022-08-06T06:01:45;101987.97;;;21.80;58.67
2178;BME280;1095;50.992;6.798;2022-08-06T06:04:15;101999.38;;;21.61;58.15
2178;BME280;1095;50.992;6.798;2022-08-06T06:06:43;101989.28;;;21.91;57.42
2178;BME280;1095;50.992;6.798;2022-08-06T06:09:10;101995.97;;;22.22;57.03
2178;BME280;1095;50.992;6.798;2022-08-06T06:11:39;101996.03;;;22.35;56.86
2178;BME280;1095;50.992;6.798;2022-08-06T06:14:22;101989.53;;;22.70;55.89
2178;BME280;1095;50.992;6.798;2022-08-06T06:16:56;101988.50;;;22.71;55.20
2178;BME280;1095;50.992;6.798;2022-08-06T06:19:34;101996.34;;;23.26;54.18
2178;BME280;1095;50.992;6.798;2022-08-06T06:22:06;101986.13;;;23.03;53.67
2178;BME280;1095;50.992;6.798;2022-08-06T06:24:38;101996.97;;;23.34;53.79
2178;BME280;1095;50.992;6.798;2022-08-06T06:27:07;101992.41;;;23.68;52.58
2178;BME280;1095;50.992;6.798;2022-08-06T06:29:45;102002.63;;;23.97;51.72
2178;BME280;1095;50.992;6.798;2022-08-06T06:32:17;101992.00;;;23.71;52.65
2178;BME280;1095;50.992;6.798;2022-08-06T06:34:51;102003.66;;;23.96;52.58
2178;BME280;1095;50.992;6.798;2022-08-06T06:37:27;102004.13;;;24.25;51.24
2178;BME280;1095;50.992;6.798;2022-08-06T06:40:05;102008.69;;;24.17;51.35
2178;BME280;1095;50.992;6.798;2022-08-06T06:42:38;102011.03;;;24.52;51.10
2178;BME280;1095;50.992;6.798;2022-08-06T06:45:13;102009.91;;;24.22;50.74
2178;BME280;1095;50.992;6.798;2022-08-06T06:47:45;102011.00;;;24.84;49.75
2178;BME280;1095;50.992;6.798;2022-08-06T06:50:20;102013.09;;;24.50;51.23
2178;BME280;1095;50.992;6.798;2022-08-06T06:52:50;102011.50;;;23.78;51.67
2178;BME280;1095;50.992;6.798;2022-08-06T06:55:22;102010.63;;;23.97;52.19
2178;BME280;1095;50.992;6.798;2022-08-06T06:57:52;102015.56;;;23.94;52.40
2178;BME280;1095;50.992;6.798;2022-08-06T07:00:19;102021.19;;;23.66;52.93
2178;BME280;1095;50.992;6.798;2022-08-06T07:02:47;102029.22;;;24.37;51.41
2178;BME280;1095;50.992;6.798;2022-08-06T07:05:16;102024.66;;;25.07;50.82
2178;BME280;1095;50.992;6.798;2022-08-06T07:07:48;102024.88;;;25.05;49.17
2178;BME280;1095;50.992;6.798;2022-08-06T07:10:17;102028.81;;;25.03;49.16
2178;BME280;1095;50.992;6.798;2022-08-06T07:12:45;102023.75;;;24.57;51.17
2178;BME280;1095;50.992;6.798;2022-08-06T07:15:15;102031.09;;;24.30;51.72
2178;BME280;1095;50.992;6.798;2022-08-06T07:17:44;102034.97;;;24.34;51.59
2178;BME280;1095;50.992;6.798;2022-08-06T07:20:12;102037.56;;;24.02;51.45
2178;BME280;1095;50.992;6.798;2022-08-06T07:22:42;102028.69;;;24.08;50.69
2178;BME280;1095;50.992;6.798;2022-08-06T07:25:12;102048.06;;;24.87;51.29
2178;BME280;1095;50.992;6.798;2022-08-06T07:27:41;102044.44;;;24.74;50.13
2178;BME280;1095;50.992;6.798;2022-08-06T07:30:11;102041.91;;;25.11;49.27
2178;BME280;1095;50.992;6.798;2022-08-06T07:32:38;102037.81;;;24.77;50.03
2178;BME280;1095;50.992;6.798;2022-08-06T07:35:09;102039.47;;;23.75;51.85
2178;BME280;1095;50.992;6.798;2022-08-06T07:37:48;102039.84;;;22.67;54.41
2178;BME280;1095;50.992;6.798;2022-08-06T07:40:20;102046.00;;;22.13;57.26
2178;BME280;1095;50.992;6.798;2022-08-06T07:42:51;102035.50;;;22.72;55.18
2178;BME280;1095;50.992;6.798;2022-08-06T07:45:21;102041.22;;;22.02;56.36
2178;BME280;1095;50.992;6.798;2022-08-06T07:47:48;102043.41;;;22.33;56.79
2178;BME280;1095;50.992;6.798;2022-08-06T07:50:17;102038.75;;;22.48;55.46
2178;BME280;1095;50.992;6.798;2022-08-06T07:52:46;102039.72;;;23.34;54.52
2178;BME280;1095;50.992;6.798;2022-08-06T07:55:14;102036.06;;;24.13;52.49
2178;BME280;1095;50.992;6.798;2022-08-06T07:57:43;102042.59;;;24.24;51.39
2178;BME280;1095;50.992;6.798;2022-08-06T08:00:10;102035.66;;;24.61;51.16
2178;BME280;1095;50.992;6.798;2022-08-06T08:02:37;102034.19;;;24.27;51.00
2178;BME280;1095;50.992;6.798;2022-08-06T08:05:06;102030.28;;;24.61;51.31
2178;BME280;1095;50.992;6.798;2022-08-06T08:08:06;102036.03;;;23.62;52.40
2178;BME280;1095;50.992;6.798;2022-08-06T08:10:35;102023.94;;;22.39;54.61
2178;BME280;1095;50.992;6.798;2022-08-06T08:13:03;102041.06;;;22.10;55.41
2178;BME280;1095;50.992;6.798;2022-08-06T08:15:30;102039.91;;;21.57;56.02
2178;BME280;1095;50.992;6.798;2022-08-06T08:17:57;102043.88;;;21.39;57.13
2178;BME280;1095;50.992;6.798;2022-08-06T08:20:25;102039.28;;;21.89;55.90
2178;BME280;1095;50.992;6.798;2022-08-06T08:22:53;102030.16;;;22.59;53.34
2178;BME280;1095;50.992;6.798;2022-08-06T08:25:21;102028.22;;;23.07;50.97
2178;BME280;1095;50.992;6.798;2022-08-06T08:27:51;102045.06;;;22.34;52.06
2178;BME280;1095;50.992;6.798;2022-08-06T08:30:18;102038.41;;;22.64;52.67
2178;BME280;1095;50.992;6.798;2022-08-06T08:32:44;102040.16;;;22.44;51.70
2178;BME280;1095;50.992;6.798;2022-08-06T08:35:11;102032.91;;;22.86;51.39
2178;BME280;1095;50.992;6.798;2022-08-06T08:37:40;102035.19;;;23.22;51.20
2178;BME280;1095;50.992;6.798;2022-08-06T08:40:08;102039.75;;;24.19;48.52
2178;BME280;1095;50.992;6.798;2022-08-06T08:42:40;102042.34;;;22.21;51.41
2178;BME280;1095;50.992;6.798;2022-08-06T08:45:09;102028.22;;;21.92;51.84
2178;BME280;1095;50.992;6.798;2022-08-06T08:47:38;102035.81;;;20.90;53.89
2178;BME280;1095;50.992;6.798;2022-08-06T08:50:06;102033.06;;;20.11;55.61
2178;BME280;1095;50.992;6.798;2022-08-06T08:52:33;102036.41;;;19.84;57.22
2178;BME280;1095;50.992;6.798;2022-08-06T08:55:02;102029.38;;;20.42;55.45
2178;BME280;1095;50.992;6.798;2022-08-06T08:57:30;102028.22;;;20.66;55.51
2178;BME280;1095;50.992;6.798;2022-08-06T09:00:00;102026.38;;;20.30;54.89
2178;BME280;1095;50.992;6.798;2022-08-06T09:02:28;102031.19;;;20.56;54.27
2178;BME280;1095;50.992;6.798;2022-08-06T09:04:55;102029.34;;;20.57;53.43
2178;BME280;1095;50.992;6.798;2022-08-06T09:07:22;102031.25;;;20.63;53.25
2178;BME280;1095;50.992;6.798;2022-08-06T09:09:48;102023.34;;;21.33;51.85
2178;BME280;1095;50.992;6.798;2022-08-06T09:12:16;102038.13;;;21.64;49.99
2178;BME280;1095;50.992;6.798;2022-08-06T09:14:43;102032.22;;;21.75;49.86
2178;BME280;1095;50.992;6.798;2022-08-06T09:17:13;102037.09;;;21.65;49.12
2178;BME280;1095;50.992;6.798;2022-08-06T09:19:40;102033.56;;;21.92;48.75
2178;BME280;1095;50.992;6.798;2022-08-06T09:22:09;102031.19;;;21.76;48.50
2178;BME280;1095;50.992;6.798;2022-08-06T09:24:36;102037.09;;;21.65;48.60
2178;BME280;1095;50.992;6.798;2022-08-06T09:27:05;102042.63;;;21.63;48.27
2178;BME280;1095;50.992;6.798;2022-08-06T09:29:32;102025.78;;;22.38;48.01
2178;BME280;1095;50.992;6.798;2022-08-06T09:31:59;102036.44;;;23.06;46.19
2178;BME280;1095;50.992;6.798;2022-08-06T09:34:36;102037.56;;;22.70;45.69
2178;BME280;1095;50.992;6.798;2022-08-06T09:37:08;102034.28;;;22.75;47.03
2178;BME280;1095;50.992;6.798;2022-08-06T09:39:39;102032.31;;;23.03;45.34
2178;BME280;1095;50.992;6.798;2022-08-06T09:42:07;102037.66;;;23.10;44.69
2178;BME280;1095;50.992;6.798;2022-08-06T09:44:34;102024.84;;;22.72;45.51
2178;BME280;1095;50.992;6.798;2022-08-06T09:47:00;102031.56;;;22.48;46.25
2178;BME280;1095;50.992;6.798;2022-08-06T09:49:44;102024.66;;;22.67;46.08
2178;BME280;1095;50.992;6.798;2022-08-06T09:52:15;102033.34;;;23.02;46.78
2178;BME280;1095;50.992;6.798;2022-08-06T09:54:41;102035.47;;;22.46;47.17
2178;BME280;1095;50.992;6.798;2022-08-06T09:57:11;102035.50;;;22.59;46.84
2178;BME280;1095;50.992;6.798;2022-08-06T09:59:42;102022.13;;;22.46;45.80
2178;BME280;1095;50.992;6.798;2022-08-06T10:02:12;102027.22;;;22.41;46.71
2178;BME280;1095;50.992;6.798;2022-08-06T10:04:40;102033.22;;;22.49;45.05
2178;BME280;1095;50.992;6.798;2022-08-06T10:07:08;102035.69;;;22.03;45.21
2178;BME280;1095;50.992;6.798;2022-08-06T10:09:35;102032.78;;;21.36;46.85
2178;BME280;1095;50.992;6.798;2022-08-06T10:12:16;102045.63;;;21.53;47.58
2178;BME280;1095;50.992;6.798;2022-08-06T10:14:43;102034.97;;;21.53;47.98
2178;BME280;1095;50.992;6.798;2022-08-06T10:17:11;102033.22;;;20.97;48.70
2178;BME280;1095;50.992;6.798;2022-08-06T10:19:39;102032.22;;;20.98;49.03
2178;BME280;1095;50.992;6.798;2022-08-06T10:22:08;102025.75;;;20.85;49.42
2178;BME280;1095;50.992;6.798;2022-08-06T10:24:37;102036.41;;;21.28;48.81
2178;BME280;1095;50.992;6.798;2022-08-06T10:27:07;102035.00;;;21.95;48.31
2178;BME280;1095;50.992;6.798;2022-08-06T10:29:35;102032.88;;;22.11;47.55
2178;BME280;1095;50.992;6.798;2022-08-06T10:32:07;102042.44;;;21.65;47.89
2178;BME280;1095;50.992;6.798;2022-08-06T10:34:35;102036.41;;;21.28;48.13
2178;BME280;1095;50.992;6.798;2022-08-06T10:37:05;102030.88;;;21.08;49.10
2178;BME280;1095;50.992;6.798;2022-08-06T10:39:35;102028.16;;;21.02;49.01
2178;BME280;1095;50.992;6.798;2022-08-06T10:42:04;102036.00;;;21.31;48.31
2178;BME280;1095;50.992;6.798;2022-08-06T10:44:33;102033.56;;;21.92;47.32
2178;BME280;1095;50.992;6.798;2022-08-06T10:47:01;102024.28;;;22.23;45.92
2178;BME280;1095;50.992;6.798;2022-08-06T10:49:32;102030.03;;;22.26;44.64
2178;BME280;1095;50.992;6.798;2022-08-06T10:52:06;102018.13;;;21.81;46.67
2178;BME280;1095;50.992;6.798;2022-08-06T11:01:23;102018.59;;;20.86;46.68
2178;BME280;1095;50.992;6.798;2022-08-06T11:04:24;102027.56;;;21.49;45.68
2178;BME280;1095;50.992;6.798;2022-08-06T11:07:42;102019.34;;;21.01;45.09
2178;BME280;1095;50.992;6.798;2022-08-06T11:14:02;102015.25;;;20.99;44.94
2178;BME280;1095;50.992;6.798;2022-08-06T11:19:53;102001.78;;;21.56;44.47
2178;BME280;1095;50.992;6.798;2022-08-06T11:22:53;101996.28;;;21.99;44.96
2178;BME280;1095;50.992;6.798;2022-08-06T11:25:50;102000.53;;;22.34;43.25
2178;BME280;1095;50.992;6.798;2022-08-06T11:29:00;102003.97;;;22.15;44.36
2178;BME280;1095;50.992;6.798;2022-08-06T11:31:35;101979.19;;;22.28;43.51
2178;BME280;1095;50.992;6.798;2022-08-06T11:34:04;101993.63;;;22.53;43.63
2178;BME280;1095;50.992;6.798;2022-08-06T11:36:49;102002.00;;;22.37;43.51
2178;BME280;1095;50.992;6.798;2022-08-06T11:39:18;101997.69;;;21.53;44.70
2178;BME280;1095;50.992;6.798;2022-08-06T11:41:57;101999.00;;;21.15;46.32
2178;BME280;1095;50.992;6.798;2022-08-06T11:44:28;101993.31;;;20.97;46.75
2178;BME280;1095;50.992;6.798;2022-08-06T11:47:12;101992.00;;;21.35;46.32
2178;BME280;1095;50.992;6.798;2022-08-06T11:49:46;101994.75;;;22.17;44.58
2178;BME280;1095;50.992;6.798;2022-08-06T11:52:38;101984.09;;;22.17;43.30
2178;BME280;1095;50.992;6.798;2022-08-06T11:55:07;101982.19;;;22.05;44.07
2178;BME280;1095;50.992;6.798;2022-08-06T11:57:34;101994.88;;;21.62;43.71
2178;BME280;1095;50.992;6.798;2022-08-06T12:00:12;101997.91;;;21.59;43.55
2178;BME280;1095;50.992;6.798;2022-08-06T12:02:56;101992.75;;;21.50;44.94
2178;BME280;1095;50.992;6.798;2022-08-06T12:05:42;101984.28;;;22.16;44.32
2178;BME280;1095;50.992;6.798;2022-08-06T12:08:25;101983.38;;;22.57;43.38
2178;BME280;1095;50.992;6.798;2022-08-06T12:11:23;101986.25;;;22.55;42.33
2178;BME280;1095;50.992;6.798;2022-08-06T12:13:51;101972.81;;;22.29;43.71
2178;BME280;1095;50.992;6.798;2022-08-06T12:16:34;101969.53;;;22.13;43.62
2178;BME280;1095;50.992;6.798;2022-08-06T12:19:03;101986.13;;;21.81;43.83
2178;BME280;1095;50.992;6.798;2022-08-06T12:21:31;101982.06;;;22.20;43.89
2178;BME280;1095;50.992;6.798;2022-08-06T12:23:58;101973.84;;;22.14;44.29
2178;BME280;1095;50.992;6.798;2022-08-06T12:26:29;101966.94;;;22.46;42.78
2178;BME280;1095;50.992;6.798;2022-08-06T12:29:00;101972.13;;;22.81;42.38
2178;BME280;1095;50.992;6.798;2022-08-06T12:31:28;101969.28;;;22.96;42.25
2178;BME280;1095;50.992;6.798;2022-08-06T12:33:57;101970.31;;;22.95;42.91
2178;BME280;1095;50.992;6.798;2022-08-06T12:36:28;101961.66;;;22.86;42.52
2178;BME280;1095;50.992;6.798;2022-08-06T12:38:56;101951.94;;;22.39;42.84
2178;BME280;1095;50.992;6.798;2022-08-06T12:41:32;101961.38;;;21.87;42.96
2178;BME280;1095;50.992;6.798;2022-08-06T12:43:59;101962.34;;;22.14;42.42
2178;BME280;1095;50.992;6.798;2022-08-06T12:46:26;101962.59;;;22.32;42.53
2178;BME280;1095;50.992;6.798;2022-08-06T12:48:52;101957.34;;;22.85;42.17
2178;BME280;1095;50.992;6.798;2022-08-06T12:51:21;101960.63;;;22.67;41.98
2178;BME280;1095;50.992;6.798;2022-08-06T12:53:50;101949.25;;;22.32;42.24
2178;BME280;1095;50.992;6.798;2022-08-06T12:56:18;101949.28;;;22.45;42.05
2178;BME280;1095;50.992;6.798;2022-08-06T12:58:45;101949.72;;;22.69;40.89
2178;BME280;1095;50.992;6.798;2022-08-06T13:01:15;101949.72;;;22.62;40.15
2178;BME280;1095;50.992;6.798;2022-08-06T13:03:44;101950.59;;;23.02;39.72
2178;BME280;1095;50.992;6.798;2022-08-06T13:06:14;101950.34;;;22.64;40.26
2178;BME280;1095;50.992;6.798;2022-08-06T13:08:45;101937.84;;;23.04;39.38
2178;BME280;1095;50.992;6.798;2022-08-06T13:11:12;101932.13;;;23.85;40.35
2178;BME280;1095;50.992;6.798;2022-08-06T13:13:41;101927.31;;;24.07;38.16
2178;BME280;1095;50.992;6.798;2022-08-06T13:16:10;101933.13;;;22.93;40.42
2178;BME280;1095;50.992;6.798;2022-08-06T13:18:37;101936.94;;;22.25;40.79
2178;BME280;1095;50.992;6.798;2022-08-06T13:21:15;101924.31;;;21.99;41.41
2178;BME280;1095;50.992;6.798;2022-08-06T13:23:46;101925.66;;;21.75;41.69
2178;BME280;1095;50.992;6.798;2022-08-06T13:26:15;101915.84;;;21.82;41.47
2178;BME280;1095;50.992;6.798;2022-08-06T13:29:04;101930.81;;;22.44;41.79
2178;BME280;1095;50.992;6.798;2022-08-06T13:31:32;101921.38;;;22.48;40.86
2178;BME280;1095;50.992;6.798;2022-08-06T13:33:59;101915.63;;;23.17;39.76
2178;BME280;1095;50.992;6.798;2022-08-06T13:36:27;101910.88;;;23.45;39.71
2178;BME280;1095;50.992;6.798;2022-08-06T13:38:56;101900.03;;;23.21;40.82
2178;BME280;1095;50.992;6.798;2022-08-06T13:41:29;101914.75;;;23.49;40.71
2178;BME280;1095;50.992;6.798;2022-08-06T13:43:58;101909.06;;;23.26;41.02
2178;BME280;1095;50.992;6.798;2022-08-06T13:46:26;101905.38;;;22.48;41.64
2178;BME280;1095;50.992;6.798;2022-08-06T13:48:55;101899.66;;;22.58;41.19